createdAt,value
2023-05-19T00:01:20.953Z,8.95
2023-05-19T00:04:02.512Z,8.93
2023-05-19T00:06:32.878Z,8.91
2023-05-19T00:09:05.791Z,8.89
2023-05-19T00:11:36.172Z,8.85
2023-05-19T00:14:06.976Z,8.84
2023-05-19T00:16:34.519Z,8.82
2023-05-19T00:19:04.634Z,8.80
2023-05-19T00:21:32.754Z,8.76
2023-05-19T00:24:00.385Z,8.72
2023-05-19T00:26:28.335Z,8.68
2023-05-19T00:29:00.942Z,8.67
2023-05-19T00:31:27.914Z,8.64
2023-05-19T00:33:55.564Z,8.60
2023-05-19T00:36:22.575Z,8.56
2023-05-19T00:38:51.090Z,8.52
2023-05-19T00:41:18.442Z,8.50
2023-05-19T00:43:47.688Z,8.45
2023-05-19T00:46:14.525Z,8.40
2023-05-19T00:48:44.631Z,8.37
2023-05-19T00:51:14.744Z,8.34
2023-05-19T00:53:41.786Z,8.29
2023-05-19T00:56:08.886Z,8.27
2023-05-19T00:58:37.132Z,8.25
2023-05-19T01:01:06.894Z,8.22
2023-05-19T01:03:36.130Z,8.20
2023-05-19T01:06:05.283Z,8.19
2023-05-19T01:08:34.353Z,8.18
2023-05-19T01:11:02.273Z,8.16
2023-05-19T01:13:29.736Z,8.14
2023-05-19T01:16:35.262Z,8.12
2023-05-19T01:19:38.688Z,8.08
2023-05-19T01:22:48.626Z,8.07
2023-05-19T01:25:37.426Z,8.03
2023-05-19T01:28:49.324Z,8.01
2023-05-19T01:31:23.920Z,7.99
2023-05-19T01:33:54.591Z,7.98
2023-05-19T01:36:23.724Z,7.96
2023-05-19T01:38:54.123Z,7.96
2023-05-19T01:41:23.060Z,7.93
2023-05-19T01:43:52.096Z,7.92
2023-05-19T01:46:19.310Z,7.90
2023-05-19T01:48:47.878Z,7.88
2023-05-19T01:51:14.767Z,7.87
2023-05-19T01:53:42.959Z,7.86
2023-05-19T01:56:10.126Z,7.84
2023-05-19T01:59:03.943Z,7.79
2023-05-19T02:01:53.039Z,7.77
2023-05-19T02:04:50.908Z,7.76
2023-05-19T02:07:37.381Z,7.72
2023-05-19T02:10:22.802Z,7.71
2023-05-19T02:12:54.063Z,7.72
2023-05-19T02:15:38.664Z,7.69
2023-05-19T02:18:09.462Z,7.71
2023-05-19T02:20:36.392Z,7.72
2023-05-19T02:23:03.246Z,7.71
2023-05-19T02:25:30.349Z,7.72
2023-05-19T02:27:59.339Z,7.71
2023-05-19T02:30:31.763Z,7.70
2023-05-19T02:33:00.645Z,7.69
2023-05-19T02:35:28.077Z,7.68
2023-05-19T02:37:54.929Z,7.67
2023-05-19T02:40:22.362Z,7.64
2023-05-19T02:42:49.865Z,7.64
2023-05-19T02:45:17.024Z,7.60
2023-05-19T02:47:43.872Z,7.58
2023-05-19T02:50:11.048Z,7.56
2023-05-19T02:52:37.920Z,7.52
2023-05-19T02:55:05.397Z,7.49
2023-05-19T02:57:35.007Z,7.48
2023-05-19T03:00:02.440Z,7.45
2023-05-19T03:02:29.688Z,7.43
2023-05-19T03:04:56.645Z,7.43
2023-05-19T03:07:25.369Z,7.40
2023-05-19T03:09:53.032Z,7.37
2023-05-19T03:12:19.938Z,7.36
2023-05-19T03:14:47.529Z,7.36
2023-05-19T03:17:14.427Z,7.35
2023-05-19T03:19:41.649Z,7.31
2023-05-19T03:22:08.550Z,7.28
2023-05-19T03:24:36.332Z,7.27
2023-05-19T03:27:05.841Z,7.25
2023-05-19T03:29:33.133Z,7.24
2023-05-19T03:32:00.465Z,7.24
2023-05-19T03:34:27.540Z,7.23
2023-05-19T03:36:55.294Z,7.24
2023-05-19T03:39:22.968Z,7.23
2023-05-19T03:41:49.981Z,7.22
2023-05-19T03:44:16.941Z,7.21
2023-05-19T03:46:44.668Z,7.22
2023-05-19T03:49:34.640Z,7.22
2023-05-19T03:52:24.353Z,7.21
2023-05-19T03:54:59.788Z,7.23
2023-05-19T03:57:26.978Z,7.22
2023-05-19T03:59:53.970Z,7.23
2023-05-19T04:02:21.668Z,7.25
2023-05-19T04:04:48.777Z,7.26
2023-05-19T04:07:15.761Z,7.29
2023-05-19T04:09:43.080Z,7.29
2023-05-19T04:12:10.123Z,7.31
2023-05-19T04:14:36.932Z,7.35
2023-05-19T04:17:04.047Z,7.40
2023-05-19T04:19:30.891Z,7.58
2023-05-19T04:21:58.546Z,7.74
2023-05-19T04:24:25.444Z,8.05
2023-05-19T04:26:53.645Z,8.48
2023-05-19T04:29:20.624Z,8.64
2023-05-19T04:31:47.541Z,8.69
2023-05-19T04:34:14.434Z,8.70
2023-05-19T04:36:41.613Z,9.14
2023-05-19T04:39:12.157Z,9.39
2023-05-19T04:41:44.618Z,9.23
2023-05-19T04:44:13.838Z,9.17
2023-05-19T04:46:42.717Z,9.06
2023-05-19T04:49:12.651Z,8.84
2023-05-19T04:51:42.410Z,8.66
2023-05-19T04:54:10.200Z,8.68
2023-05-19T04:56:37.330Z,8.65
2023-05-19T04:59:04.724Z,8.60
2023-05-19T05:01:33.818Z,8.57
2023-05-19T05:04:02.761Z,8.58
2023-05-19T05:06:31.779Z,8.62
2023-05-19T05:09:04.314Z,8.67
2023-05-19T05:11:32.245Z,8.75
2023-05-19T05:14:00.826Z,8.91
2023-05-19T05:16:30.051Z,8.98
2023-05-19T05:18:58.764Z,9.24
2023-05-19T05:21:26.590Z,9.46
2023-05-19T05:23:54.291Z,9.64
2023-05-19T05:26:33.289Z,9.86
2023-05-19T05:29:01.482Z,9.92
2023-05-19T05:31:29.312Z,9.87
2023-05-19T05:33:56.449Z,9.93
2023-05-19T05:36:27.464Z,9.93
2023-05-19T05:38:54.821Z,9.85
2023-05-19T05:41:23.080Z,9.83
2023-05-19T05:43:52.076Z,9.89
2023-05-19T05:46:19.030Z,9.89
2023-05-19T05:48:47.081Z,9.95
2023-05-19T05:51:14.381Z,10.02
2023-05-19T05:53:48.693Z,10.12
2023-05-19T05:56:16.589Z,10.24
2023-05-19T05:58:49.727Z,10.36
2023-05-19T06:01:17.776Z,10.50
2023-05-19T06:03:45.382Z,10.61
2023-05-19T06:06:16.070Z,10.88
2023-05-19T06:08:42.971Z,11.16
2023-05-19T06:11:11.278Z,11.30
2023-05-19T06:13:43.060Z,11.38
2023-05-19T06:16:16.191Z,11.49
2023-05-19T06:18:46.319Z,11.53
2023-05-19T06:21:13.590Z,11.59
2023-05-19T06:23:41.630Z,11.77
2023-05-19T06:26:10.544Z,12.22
2023-05-19T06:28:37.868Z,12.50
2023-05-19T06:31:06.035Z,12.62
2023-05-19T06:33:43.357Z,12.56
2023-05-19T06:36:10.684Z,12.60
2023-05-19T06:38:39.378Z,12.73
2023-05-19T06:41:07.003Z,12.87
2023-05-19T06:43:34.251Z,12.96
2023-05-19T06:46:04.753Z,13.10
2023-05-19T06:48:33.523Z,13.18
2023-05-19T06:51:00.664Z,13.18
2023-05-19T06:53:27.768Z,13.19
2023-05-19T06:55:59.985Z,13.14
2023-05-19T06:58:31.580Z,13.25
2023-05-19T07:00:59.852Z,13.62
2023-05-19T07:03:31.534Z,14.13
2023-05-19T07:05:59.457Z,14.65
2023-05-19T07:08:27.919Z,15.39
2023-05-19T07:10:57.755Z,16.13
2023-05-19T07:13:27.247Z,16.84
2023-05-19T07:15:58.224Z,17.50
2023-05-19T07:18:31.703Z,18.11
2023-05-19T07:20:59.003Z,18.60
2023-05-19T07:23:26.289Z,19.00
2023-05-19T07:25:56.843Z,19.23
2023-05-19T07:28:23.880Z,19.47
2023-05-19T07:30:50.883Z,19.82
2023-05-19T07:33:17.777Z,20.17
2023-05-19T07:35:45.574Z,20.41
2023-05-19T07:38:12.550Z,20.74
2023-05-19T07:40:39.438Z,20.77
2023-05-19T07:43:06.335Z,20.97
2023-05-19T07:45:33.318Z,21.08
2023-05-19T07:48:00.261Z,21.13
2023-05-19T07:50:27.340Z,21.47
2023-05-19T07:52:54.185Z,21.96
2023-05-19T07:55:23.169Z,22.24
2023-05-19T07:57:51.126Z,22.46
2023-05-19T08:00:18.410Z,22.48
2023-05-19T08:02:45.735Z,22.48
2023-05-19T08:05:12.778Z,22.72
2023-05-19T08:07:39.596Z,23.00
2023-05-19T08:10:07.054Z,23.11
2023-05-19T08:12:33.933Z,22.66
2023-05-19T08:15:01.787Z,22.20
2023-05-19T08:17:28.981Z,22.12
2023-05-19T08:19:55.898Z,22.09
2023-05-19T08:22:22.923Z,22.12
2023-05-19T08:24:51.668Z,22.27
2023-05-19T08:27:18.571Z,22.11
2023-05-19T08:29:45.438Z,22.03
2023-05-19T08:32:13.382Z,21.97
2023-05-19T08:34:41.309Z,22.02
2023-05-19T08:37:08.195Z,22.02
2023-05-19T08:39:35.120Z,21.87
2023-05-19T08:42:02.503Z,21.77
2023-05-19T08:44:30.943Z,21.88
2023-05-19T08:47:04.979Z,21.88
2023-05-19T08:49:37.089Z,21.74
2023-05-19T08:52:49.503Z,21.79
2023-05-19T08:55:55.410Z,21.95
2023-05-19T08:58:23.210Z,22.18
2023-05-19T09:00:51.246Z,22.16
2023-05-19T09:05:49.948Z,22.42
2023-05-19T09:08:16.849Z,22.35
2023-05-19T09:10:43.675Z,22.49
2023-05-19T09:13:10.724Z,22.32
2023-05-19T09:15:41.424Z,22.32
2023-05-19T09:18:11.600Z,22.58
2023-05-19T09:20:41.534Z,22.50
2023-05-19T09:23:16.876Z,22.34
2023-05-19T09:25:52.354Z,22.51
2023-05-19T09:28:30.647Z,22.82
2023-05-19T09:31:01.232Z,22.91
2023-05-19T09:33:29.630Z,22.58
2023-05-19T09:35:57.249Z,21.98
2023-05-19T09:38:26.368Z,21.76
2023-05-19T09:40:58.296Z,21.74
2023-05-19T09:43:33.397Z,22.09
2023-05-19T09:46:07.862Z,22.37
2023-05-19T09:48:36.568Z,22.57
2023-05-19T09:51:07.717Z,22.51
2023-05-19T09:53:35.271Z,22.18
2023-05-19T09:56:04.066Z,21.99
2023-05-19T09:58:35.417Z,21.84
2023-05-19T10:01:04.844Z,21.86
2023-05-19T10:03:35.283Z,21.81
2023-05-19T10:06:05.389Z,21.71
2023-05-19T10:08:34.346Z,21.87
2023-05-19T10:11:03.161Z,22.15
2023-05-19T10:13:32.097Z,22.40
2023-05-19T10:16:00.623Z,22.52
2023-05-19T10:18:29.550Z,22.66
2023-05-19T10:20:58.081Z,22.34
2023-05-19T10:23:26.070Z,22.07
2023-05-19T10:25:58.838Z,21.68
2023-05-19T10:28:43.203Z,21.49
2023-05-19T10:31:19.429Z,21.72
2023-05-19T10:34:33.607Z,21.82
2023-05-19T10:37:37.760Z,21.67
2023-05-19T10:40:21.058Z,21.68
2023-05-19T10:43:12.638Z,21.80
2023-05-19T10:45:49.424Z,21.79
2023-05-19T10:48:17.417Z,22.04
2023-05-19T10:50:46.773Z,22.26
2023-05-19T10:53:19.292Z,22.44
2023-05-19T10:55:59.070Z,22.58
2023-05-19T10:58:44.053Z,22.62
2023-05-19T11:01:16.995Z,22.65
2023-05-19T11:03:57.402Z,22.63
2023-05-19T11:06:33.314Z,22.80
2023-05-19T11:09:12.421Z,22.87
2023-05-19T11:11:49.958Z,22.58
2023-05-19T11:14:26.794Z,22.46
2023-05-19T11:16:59.085Z,22.48
2023-05-19T11:19:34.634Z,22.80
2023-05-19T11:22:12.959Z,23.23
2023-05-19T11:24:50.164Z,23.71
2023-05-19T11:27:33.220Z,24.16
2023-05-19T11:30:11.607Z,24.13
2023-05-19T11:32:39.524Z,23.99
2023-05-19T11:35:08.188Z,23.71
2023-05-19T11:37:35.904Z,23.63
2023-05-19T11:40:08.924Z,24.01
2023-05-19T11:42:37.061Z,24.28
2023-05-19T11:45:06.373Z,24.47
2023-05-19T11:47:42.117Z,24.41
2023-05-19T11:50:20.553Z,24.32
2023-05-19T11:52:47.971Z,24.31
2023-05-19T11:55:19.344Z,24.34
2023-05-19T11:58:03.029Z,24.28
2023-05-19T12:00:39.590Z,24.69
2023-05-19T12:03:08.311Z,25.17
2023-05-19T12:05:48.151Z,25.19
2023-05-19T12:08:18.463Z,25.47
2023-05-19T12:10:51.818Z,25.95
2023-05-19T12:13:19.913Z,25.96
2023-05-19T12:15:46.984Z,25.88
2023-05-19T12:18:14.040Z,25.92
2023-05-19T12:20:41.253Z,25.73
2023-05-19T12:23:08.953Z,25.47
2023-05-19T12:25:36.399Z,25.34
2023-05-19T12:28:03.891Z,25.44
2023-05-19T12:30:32.901Z,25.34
2023-05-19T12:33:02.729Z,25.05
2023-05-19T12:35:34.603Z,24.92
2023-05-19T12:38:06.231Z,25.03
2023-05-19T12:40:40.223Z,24.95
2023-05-19T12:43:18.498Z,24.64
2023-05-19T12:45:45.533Z,24.49
2023-05-19T12:48:12.869Z,24.63
2023-05-19T12:50:39.953Z,24.97
2023-05-19T12:53:12.158Z,24.54
2023-05-19T12:55:44.768Z,24.11
2023-05-19T12:58:12.985Z,24.19
2023-05-19T13:00:45.676Z,24.44
2023-05-19T13:03:20.555Z,24.88
2023-05-19T13:05:50.953Z,24.89
2023-05-19T13:08:21.648Z,24.74
2023-05-19T13:10:51.563Z,24.74
2023-05-19T13:13:18.518Z,25.04
2023-05-19T13:15:49.071Z,25.34
2023-05-19T13:18:17.635Z,25.44
2023-05-19T13:20:47.330Z,25.35
2023-05-19T13:23:16.180Z,25.35
2023-05-19T13:25:43.667Z,25.56
2023-05-19T13:28:11.150Z,25.80
2023-05-19T13:30:40.587Z,26.12
2023-05-19T13:33:08.170Z,26.60
2023-05-19T13:35:38.857Z,26.67
2023-05-19T13:38:07.941Z,26.47
2023-05-19T13:40:35.219Z,26.25
2023-05-19T13:43:05.983Z,26.03
2023-05-19T13:45:33.856Z,25.97
2023-05-19T13:48:00.994Z,25.77
2023-05-19T13:50:28.109Z,25.70
2023-05-19T13:52:55.015Z,25.48
2023-05-19T13:55:23.300Z,25.31
2023-05-19T13:57:50.931Z,25.05
2023-05-19T14:00:19.373Z,25.09
2023-05-19T14:02:46.516Z,25.44
2023-05-19T14:05:13.631Z,25.68
2023-05-19T14:07:40.627Z,25.96
2023-05-19T14:10:08.405Z,26.24
2023-05-19T14:12:49.463Z,26.16
2023-05-19T14:15:23.785Z,25.84
2023-05-19T14:17:50.933Z,25.59
2023-05-19T14:20:21.971Z,25.44
2023-05-19T14:22:48.874Z,25.34
2023-05-19T14:25:16.052Z,25.51
2023-05-19T14:27:42.906Z,25.64
2023-05-19T14:30:10.450Z,25.67
2023-05-19T14:32:37.268Z,25.99
2023-05-19T14:35:04.959Z,26.09
2023-05-19T14:37:32.289Z,25.89
2023-05-19T14:39:59.376Z,25.89
2023-05-19T14:42:26.241Z,26.02
2023-05-19T14:44:53.091Z,26.23
2023-05-19T14:47:19.911Z,26.33
2023-05-19T14:49:47.072Z,26.34
2023-05-19T14:52:13.886Z,26.51
2023-05-19T14:54:40.827Z,26.57
2023-05-19T14:57:08.159Z,26.34
2023-05-19T14:59:38.545Z,25.56
2023-05-19T15:02:05.975Z,24.56
2023-05-19T15:04:32.861Z,23.82
2023-05-19T15:07:09.925Z,23.79
2023-05-19T15:09:37.638Z,23.88
2023-05-19T15:12:04.698Z,24.05
2023-05-19T15:14:31.727Z,24.43
2023-05-19T15:16:59.185Z,24.50
2023-05-19T15:19:26.520Z,24.37
2023-05-19T15:21:53.636Z,24.49
2023-05-19T15:24:20.555Z,24.88
2023-05-19T15:26:47.601Z,24.74
2023-05-19T15:29:14.535Z,24.67
2023-05-19T15:31:41.572Z,24.85
2023-05-19T15:34:08.692Z,24.96
2023-05-19T15:36:35.600Z,24.78
2023-05-19T15:39:03.711Z,24.75
2023-05-19T15:41:30.720Z,24.84
2023-05-19T15:44:00.241Z,25.00
2023-05-19T15:46:27.439Z,25.17
2023-05-19T15:48:54.782Z,24.84
2023-05-19T15:51:22.583Z,24.34
2023-05-19T15:53:49.495Z,24.01
2023-05-19T15:56:16.579Z,23.72
2023-05-19T15:58:43.582Z,23.81
2023-05-19T16:01:10.690Z,23.96
2023-05-19T16:03:38.083Z,24.15
2023-05-19T16:06:05.372Z,24.32
2023-05-19T16:08:32.310Z,24.49
2023-05-19T16:10:59.199Z,24.70
2023-05-19T16:13:26.047Z,24.70
2023-05-19T16:15:53.038Z,24.59
2023-05-19T16:18:19.969Z,24.20
2023-05-19T16:20:46.875Z,23.76
2023-05-19T16:23:13.772Z,23.19
2023-05-19T16:25:41.518Z,23.17
2023-05-19T16:28:08.943Z,23.08
2023-05-19T16:30:36.401Z,23.08
2023-05-19T16:33:03.539Z,23.17
2023-05-19T16:35:30.963Z,23.39
2023-05-19T16:37:57.999Z,23.35
2023-05-19T16:40:24.918Z,23.39
2023-05-19T16:42:54.616Z,23.18
2023-05-19T16:45:21.496Z,22.93
2023-05-19T16:47:48.383Z,22.67
2023-05-19T16:50:15.379Z,22.31
2023-05-19T16:52:42.424Z,21.90
2023-05-19T16:55:09.754Z,21.55
2023-05-19T16:57:36.643Z,21.36
2023-05-19T17:00:04.029Z,21.14
2023-05-19T17:02:31.053Z,21.00
2023-05-19T17:04:57.960Z,20.96
2023-05-19T17:07:24.773Z,20.80
2023-05-19T17:09:53.009Z,20.68
2023-05-19T17:12:21.349Z,20.63
2023-05-19T17:14:49.927Z,20.60
2023-05-19T17:17:16.818Z,20.57
2023-05-19T17:19:43.940Z,20.41
2023-05-19T17:22:10.758Z,20.30
2023-05-19T17:24:37.585Z,20.28
2023-05-19T17:27:04.851Z,20.28
2023-05-19T17:29:31.736Z,20.32
2023-05-19T17:31:58.610Z,20.33
2023-05-19T17:34:25.568Z,20.23
2023-05-19T17:36:52.375Z,20.16
2023-05-19T17:39:20.247Z,20.08
2023-05-19T17:41:47.194Z,19.98
2023-05-19T17:44:14.878Z,19.86
2023-05-19T17:46:41.769Z,19.75
2023-05-19T17:49:10.521Z,19.62
2023-05-19T17:51:37.905Z,19.54
2023-05-19T17:54:05.473Z,19.51
2023-05-19T17:56:39.692Z,19.45
2023-05-19T17:59:07.120Z,19.45
2023-05-19T18:01:34.428Z,19.44
2023-05-19T18:04:02.415Z,19.41
2023-05-19T18:06:31.845Z,19.36
2023-05-19T18:09:03.279Z,19.32
2023-05-19T18:11:30.097Z,19.29
2023-05-19T18:13:57.448Z,19.26
2023-05-19T18:16:25.582Z,19.26
2023-05-19T18:18:52.569Z,19.19
2023-05-19T18:21:19.493Z,19.18
2023-05-19T18:23:46.973Z,19.14
2023-05-19T18:26:14.212Z,19.09
2023-05-19T18:28:42.025Z,19.03
2023-05-19T18:31:10.997Z,18.93
2023-05-19T18:33:37.809Z,18.83
2023-05-19T18:36:04.895Z,18.77
2023-05-19T18:38:31.749Z,18.68
2023-05-19T18:41:00.697Z,18.60
2023-05-19T18:43:30.108Z,18.51
2023-05-19T18:45:57.265Z,18.41
2023-05-19T18:48:28.371Z,18.32
2023-05-19T18:50:55.289Z,18.24
2023-05-19T18:53:22.725Z,18.17
2023-05-19T18:55:49.660Z,18.09
2023-05-19T18:58:20.634Z,18.01
2023-05-19T19:00:47.556Z,17.93
2023-05-19T19:03:14.457Z,17.86
2023-05-19T19:05:41.721Z,17.79
2023-05-19T19:08:08.627Z,17.72
2023-05-19T19:10:39.034Z,17.64
2023-05-19T19:13:06.548Z,17.57
2023-05-19T19:15:33.382Z,17.50
2023-05-19T19:18:00.545Z,17.44
2023-05-19T19:20:27.452Z,17.37
2023-05-19T19:22:54.330Z,17.31
2023-05-19T19:25:23.259Z,17.23
2023-05-19T19:27:51.226Z,17.14
2023-05-19T19:30:18.090Z,17.08
2023-05-19T19:32:44.981Z,17.00
2023-05-19T19:35:11.947Z,16.91
2023-05-19T19:37:38.870Z,16.85
2023-05-19T19:40:06.805Z,16.79
2023-05-19T19:42:34.069Z,16.72
2023-05-19T19:45:01.000Z,16.65
2023-05-19T19:47:27.915Z,16.61
2023-05-19T19:49:55.907Z,16.53
2023-05-19T19:52:22.722Z,16.47
2023-05-19T19:54:49.628Z,16.41
2023-05-19T19:57:19.152Z,16.35
2023-05-19T19:59:46.029Z,16.27
2023-05-19T20:02:14.132Z,16.21
2023-05-19T20:04:41.306Z,16.14
2023-05-19T20:07:08.796Z,16.10
2023-05-19T20:09:35.818Z,16.05
2023-05-19T20:12:02.666Z,16.00
2023-05-19T20:14:29.523Z,15.95
2023-05-19T20:16:56.674Z,15.91
2023-05-19T20:19:27.963Z,15.86
2023-05-19T20:21:57.124Z,15.82
2023-05-19T20:24:23.941Z,15.76
2023-05-19T20:26:50.817Z,15.71
2023-05-19T20:29:17.691Z,15.66
2023-05-19T20:31:46.601Z,15.61
2023-05-19T20:34:13.526Z,15.53
2023-05-19T20:36:40.892Z,15.47
2023-05-19T20:39:09.687Z,15.42
2023-05-19T20:41:36.715Z,15.36
2023-05-19T20:44:03.992Z,15.28
2023-05-19T20:46:30.938Z,15.22
2023-05-19T20:48:57.832Z,15.18
2023-05-19T20:51:25.343Z,15.14
2023-05-19T20:53:52.196Z,15.10
2023-05-19T20:56:19.894Z,15.06
2023-05-19T20:58:46.760Z,15.01
2023-05-19T21:01:13.587Z,14.95
2023-05-19T21:03:40.476Z,14.90
2023-05-19T21:06:07.338Z,14.84
2023-05-19T21:08:34.285Z,14.78
2023-05-19T21:11:01.069Z,14.75
2023-05-19T21:13:27.877Z,14.70
2023-05-19T21:15:57.062Z,14.65
2023-05-19T21:18:23.976Z,14.61
2023-05-19T21:20:50.824Z,14.56
2023-05-19T21:23:17.709Z,14.52
2023-05-19T21:25:45.396Z,14.47
2023-05-19T21:28:12.581Z,14.44
2023-05-19T21:30:39.407Z,14.41
2023-05-19T21:33:06.276Z,14.37
2023-05-19T21:35:33.133Z,14.35
2023-05-19T21:38:12.031Z,14.31
2023-05-19T21:40:48.522Z,14.30
2023-05-19T21:43:15.473Z,14.25
2023-05-19T21:45:42.311Z,14.24
2023-05-19T21:48:09.254Z,14.21
2023-05-19T21:50:38.036Z,14.20
2023-05-19T21:53:05.628Z,14.17
2023-05-19T21:55:32.460Z,14.14
2023-05-19T21:58:00.963Z,14.12
2023-05-19T22:00:29.308Z,14.11
2023-05-19T22:02:56.234Z,14.07
2023-05-19T22:05:23.121Z,14.05
2023-05-19T22:07:50.079Z,14.00
2023-05-19T22:10:17.444Z,13.98
2023-05-19T22:12:44.272Z,13.96
2023-05-19T22:15:13.262Z,13.91
2023-05-19T22:17:40.228Z,13.86
2023-05-19T22:20:08.161Z,13.82
2023-05-19T22:22:35.414Z,13.79
2023-05-19T22:25:03.841Z,13.77
2023-05-19T22:27:30.786Z,13.76
2023-05-19T22:29:59.643Z,13.75
2023-05-19T22:32:26.688Z,13.73
2023-05-19T22:34:53.679Z,13.73
2023-05-19T22:37:24.005Z,13.71
2023-05-19T22:39:51.535Z,13.70
2023-05-19T22:42:18.657Z,13.66
2023-05-19T22:44:45.892Z,13.63
2023-05-19T22:47:13.910Z,13.60
2023-05-19T22:49:41.593Z,13.58
2023-05-19T22:52:11.063Z,13.54
2023-05-19T22:54:38.292Z,13.53
2023-05-19T22:57:05.545Z,13.52
2023-05-19T22:59:32.410Z,13.50
2023-05-19T23:01:59.288Z,13.48
2023-05-19T23:04:26.460Z,13.51
2023-05-19T23:06:53.346Z,13.48
2023-05-19T23:09:20.204Z,13.50
2023-05-19T23:11:47.398Z,13.48
2023-05-19T23:14:14.259Z,13.47
2023-05-19T23:16:41.132Z,13.48
2023-05-19T23:19:08.270Z,13.47
2023-05-19T23:21:35.202Z,13.45
2023-05-19T23:24:02.122Z,13.47
2023-05-19T23:26:28.927Z,13.47
2023-05-19T23:28:55.822Z,13.46
2023-05-19T23:31:22.782Z,13.43
2023-05-19T23:33:49.793Z,13.44
2023-05-19T23:36:17.714Z,13.42
2023-05-19T23:38:44.559Z,13.40
2023-05-19T23:41:11.482Z,13.37
2023-05-19T23:43:38.298Z,13.34
2023-05-19T23:46:05.632Z,13.31
2023-05-19T23:48:36.608Z,13.29
2023-05-19T23:51:04.543Z,13.24
2023-05-19T23:53:31.465Z,13.22
2023-05-19T23:55:58.813Z,13.18
2023-05-19T23:58:25.944Z,13.15
